Time;durP1;ratioP1;P1;durP2;ratioP2;P2;SDS_P1;SDS_P2;PMS_P1;PMS_P2;Temp;Humidity;BMP_temperature;BMP_pressure;BME280_temperature;BME280_humidity;BME280_pressure;Samples;Min_cycle;Max_cycle;Signal;HPM_P1;HPM_P2
2022/03/18 00:00:39;;;;;;;2.42;2.33;;;;;;;;;;1807893;79;26217;-41
2022/03/18 00:03:06;;;;;;;2.00;1.90;;;;;;;;;;1804964;79;26698;-41
2022/03/18 00:05:35;;;;;;;2.20;2.10;;;;;;;;;;1807978;79;26263;-40
2022/03/18 00:08:03;;;;;;;2.22;2.12;;;;;;;;;;1805473;79;26260;-40
2022/03/18 00:10:31;;;;;;;2.25;2.15;;;;;;;;;;1825343;78;26358;-41
2022/03/18 00:12:59;;;;;;;2.42;2.33;;;;;;;;;;1810307;78;26942;-40
2022/03/18 00:15:27;;;;;;;2.30;2.20;;;;;;;;;;1805091;79;26268;-41
2022/03/18 00:17:56;;;;;;;2.33;2.22;;;;;;;;;;1800478;78;26762;-42
2022/03/18 00:20:24;;;;;;;2.40;2.30;;;;;;;;;;1795716;79;26546;-41
2022/03/18 00:22:52;;;;;;;2.17;2.08;;;;;;;;;;1808974;78;25778;-42
2022/03/18 00:25:20;;;;;;;2.47;2.37;;;;;;;;;;1809800;79;26361;-41
2022/03/18 00:27:47;;;;;;;2.33;2.22;;;;;;;;;;1805763;79;26327;-41
2022/03/18 00:30:16;;;;;;;2.37;2.27;;;;;;;;;;1782158;79;26589;-41
2022/03/18 00:32:43;;;;;;;2.37;2.27;;;;;;;;;;1805423;79;26232;-41
2022/03/18 00:35:11;;;;;;;2.62;2.40;;;;;;;;;;1786942;78;26298;-41
2022/03/18 00:37:39;;;;;;;2.50;2.30;;;;;;;;;;1776496;81;26247;-41
2022/03/18 00:40:07;;;;;;;2.35;2.15;;;;;;;;;;1776421;81;26310;-41
2022/03/18 00:42:34;;;;;;;2.27;2.17;;;;;;;;;;1781130;79;26321;-41
2022/03/18 00:45:02;;;;;;;2.20;2.10;;;;;;;;;;1797099;79;26289;-41
2022/03/18 00:53:00;;;;;;;2.25;2.15;;;;;;;;;;1783192;79;26298;-40
2022/03/18 00:55:27;;;;;;;2.70;2.52;;;;;;;;;;1800687;78;26775;-40
2022/03/18 00:57:55;;;;;;;2.37;2.17;;;;;;;;;;1776387;81;26912;-41
2022/03/18 01:00:23;;;;;;;2.75;2.55;;;;;;;;;;1789063;78;26277;-41
2022/03/18 01:02:50;;;;;;;2.58;2.47;;;;;;;;;;1801642;78;26993;-41
2022/03/18 01:05:18;;;;;;;2.30;2.17;;;;;;;;;;1809381;78;26239;-41
2022/03/18 01:07:45;;;;;;;2.55;2.35;;;;;;;;;;1841705;78;26813;-40
2022/03/18 01:10:12;;;;;;;2.80;2.22;;;;;;;;;;1840964;77;26762;-40
2022/03/18 01:12:40;;;;;;;2.65;2.25;;;;;;;;;;1815719;78;26728;-41
2022/03/18 01:15:07;;;;;;;2.40;2.30;;;;;;;;;;1806097;78;26666;-42
2022/03/18 01:17:35;;;;;;;2.50;2.30;;;;;;;;;;1833753;78;26348;-40
2022/03/18 01:20:03;;;;;;;2.55;2.35;;;;;;;;;;1811115;77;27337;-41
2022/03/18 01:22:31;;;;;;;2.33;2.22;;;;;;;;;;1804648;79;26263;-41
2022/03/18 01:24:58;;;;;;;2.35;2.25;;;;;;;;;;1804709;79;26829;-43
2022/03/18 01:27:25;;;;;;;3.58;2.58;;;;;;;;;;1827591;78;26328;-41
2022/03/18 01:29:53;;;;;;;2.17;2.08;;;;;;;;;;1834147;78;26265;-41
2022/03/18 01:32:20;;;;;;;2.80;2.60;;;;;;;;;;1805498;79;27335;-43
2022/03/18 01:34:47;;;;;;;2.42;2.33;;;;;;;;;;1805427;79;26221;-41
2022/03/18 01:37:15;;;;;;;2.67;2.47;;;;;;;;;;1805465;79;26224;-41
2022/03/18 01:39:42;;;;;;;2.80;2.60;;;;;;;;;;1805423;79;26229;-40
2022/03/18 01:42:09;;;;;;;2.45;2.35;;;;;;;;;;1792055;79;26764;-42
2022/03/18 01:44:43;;;;;;;2.80;2.60;;;;;;;;;;1773244;78;26736;-43
2022/03/18 01:47:11;;;;;;;2.60;2.50;;;;;;;;;;1805368;78;26639;-41
2022/03/18 01:49:38;;;;;;;2.70;2.50;;;;;;;;;;1805233;79;26337;-43
2022/03/18 01:52:10;;;;;;;2.60;2.40;;;;;;;;;;1811987;78;26283;-41
2022/03/18 01:54:50;;;;;;;2.67;2.50;;;;;;;;;;1803269;78;26778;-41
2022/03/18 01:57:19;;;;;;;3.25;2.70;;;;;;;;;;1800192;78;26317;-40
2022/03/18 01:59:46;;;;;;;2.52;2.42;;;;;;;;;;1809965;79;26294;-42
2022/03/18 02:02:15;;;;;;;2.55;2.45;;;;;;;;;;1805574;79;27103;-41
2022/03/18 02:04:43;;;;;;;3.25;2.50;;;;;;;;;;1807554;78;26910;-41
2022/03/18 02:07:11;;;;;;;2.70;2.60;;;;;;;;;;1835385;78;26818;-40
2022/03/18 02:09:39;;;;;;;2.83;2.62;;;;;;;;;;1834952;78;26857;-40
2022/03/18 02:12:07;;;;;;;2.98;2.77;;;;;;;;;;1820075;78;26268;-40
2022/03/18 02:14:36;;;;;;;2.92;2.72;;;;;;;;;;1805285;79;26350;-40
2022/03/18 02:17:05;;;;;;;2.77;2.60;;;;;;;;;;1804397;79;26287;-41
2022/03/18 02:19:32;;;;;;;2.77;2.58;;;;;;;;;;1804196;79;25793;-41
2022/03/18 02:21:59;;;;;;;2.87;2.67;;;;;;;;;;1806562;78;26845;-41
2022/03/18 02:24:27;;;;;;;4.12;2.45;;;;;;;;;;1798487;79;26287;-41
2022/03/18 02:26:55;;;;;;;3.08;2.70;;;;;;;;;;1821672;78;26942;-40
2022/03/18 02:29:24;;;;;;;2.98;2.77;;;;;;;;;;1835691;78;26296;-40
2022/03/18 02:31:51;;;;;;;2.75;2.58;;;;;;;;;;1809471;78;26287;-40
2022/03/18 02:34:19;;;;;;;2.85;2.65;;;;;;;;;;1797128;78;26242;-40
2022/03/18 02:36:46;;;;;;;3.12;2.60;;;;;;;;;;1810131;79;25722;-41
2022/03/18 02:39:14;;;;;;;2.80;2.60;;;;;;;;;;1809958;79;26368;-41
2022/03/18 02:41:42;;;;;;;2.92;2.72;;;;;;;;;;1808735;79;26326;-42
2022/03/18 02:44:09;;;;;;;2.90;2.75;;;;;;;;;;1819479;79;26311;-41
2022/03/18 02:46:36;;;;;;;2.85;2.62;;;;;;;;;;1846014;77;26295;-41
2022/03/18 02:49:05;;;;;;;3.20;3.00;;;;;;;;;;1825455;77;26348;-41
2022/03/18 02:51:32;;;;;;;2.77;2.58;;;;;;;;;;1820238;79;26367;-41
2022/03/18 02:54:00;;;;;;;2.83;2.70;;;;;;;;;;1811483;78;26793;-40
2022/03/18 02:56:27;;;;;;;2.90;2.55;;;;;;;;;;1790289;80;26293;-41
2022/03/18 02:58:54;;;;;;;3.17;2.98;;;;;;;;;;1809076;77;26352;-40
2022/03/18 03:01:21;;;;;;;3.55;2.87;;;;;;;;;;1826608;77;26374;-39
2022/03/18 03:03:49;;;;;;;2.72;2.52;;;;;;;;;;1850597;77;26384;-40
2022/03/18 03:09:01;;;;;;;2.80;2.60;;;;;;;;;;1820082;77;26313;-40
2022/03/18 03:11:29;;;;;;;3.10;2.90;;;;;;;;;;1816834;77;26290;-39
2022/03/18 03:13:56;;;;;;;4.17;2.87;;;;;;;;;;1828135;77;26424;-40
2022/03/18 03:16:24;;;;;;;2.87;2.67;;;;;;;;;;1818493;78;26298;-42
2022/03/18 03:18:51;;;;;;;3.02;2.83;;;;;;;;;;1821821;78;26288;-41
2022/03/18 03:21:19;;;;;;;3.10;2.90;;;;;;;;;;1823645;78;26785;-41
2022/03/18 03:23:47;;;;;;;3.55;2.85;;;;;;;;;;1837485;77;26696;-41
2022/03/18 03:26:15;;;;;;;3.00;2.80;;;;;;;;;;1842251;77;26579;-39
2022/03/18 03:28:43;;;;;;;3.17;2.90;;;;;;;;;;1804650;79;26215;-40
2022/03/18 03:31:11;;;;;;;3.47;2.92;;;;;;;;;;1813117;79;26302;-41
2022/03/18 03:33:39;;;;;;;3.00;2.80;;;;;;;;;;1825984;77;26384;-39
2022/03/18 03:36:07;;;;;;;3.12;2.92;;;;;;;;;;1819074;79;26298;-40
2022/03/18 03:38:35;;;;;;;2.70;2.50;;;;;;;;;;1819287;79;26785;-39
2022/03/18 03:41:02;;;;;;;3.37;3.17;;;;;;;;;;1818776;78;26742;-39
2022/03/18 03:43:29;;;;;;;3.12;2.85;;;;;;;;;;1820034;79;26389;-40
2022/03/18 03:45:57;;;;;;;3.67;3.02;;;;;;;;;;1811026;77;26302;-39
2022/03/18 03:48:24;;;;;;;3.35;3.05;;;;;;;;;;1808417;79;26454;-40
2022/03/18 03:50:52;;;;;;;2.95;2.75;;;;;;;;;;1790451;80;26238;-40
2022/03/18 03:53:19;;;;;;;3.30;3.10;;;;;;;;;;1790624;80;26296;-40
2022/03/18 03:55:46;;;;;;;3.20;3.00;;;;;;;;;;1790560;80;26314;-39
2022/03/18 03:58:14;;;;;;;3.15;2.90;;;;;;;;;;1814785;77;26286;-40
2022/03/18 04:00:41;;;;;;;3.40;3.20;;;;;;;;;;1815487;77;26212;-40
2022/03/18 04:03:08;;;;;;;3.20;3.00;;;;;;;;;;1835228;77;26310;-41
2022/03/18 04:05:38;;;;;;;3.15;2.95;;;;;;;;;;1816767;79;26292;-40
2022/03/18 04:08:05;;;;;;;4.00;3.20;;;;;;;;;;1820301;78;26291;-41
2022/03/18 04:10:33;;;;;;;3.35;3.15;;;;;;;;;;1825449;77;26294;-41
2022/03/18 04:13:00;;;;;;;5.22;3.05;;;;;;;;;;1803568;78;26359;-41
2022/03/18 04:15:27;;;;;;;3.27;2.98;;;;;;;;;;1814192;78;26272;-40
2022/03/18 04:17:54;;;;;;;3.35;3.05;;;;;;;;;;1818278;79;26341;-40
2022/03/18 04:20:22;;;;;;;3.30;3.00;;;;;;;;;;1803558;79;26282;-41
2022/03/18 04:22:51;;;;;;;3.45;3.15;;;;;;;;;;1824568;77;27346;-42
2022/03/18 04:25:20;;;;;;;3.70;3.40;;;;;;;;;;1850934;77;26294;-40
2022/03/18 04:27:48;;;;;;;3.22;3.02;;;;;;;;;;1823198;77;26353;-40
2022/03/18 04:30:16;;;;;;;5.15;3.20;;;;;;;;;;1826632;77;26212;-39
2022/03/18 04:32:44;;;;;;;3.70;3.40;;;;;;;;;;1850433;77;26347;-39
2022/03/18 04:35:12;;;;;;;4.30;3.10;;;;;;;;;;1843908;77;26336;-39
2022/03/18 04:37:40;;;;;;;3.22;3.00;;;;;;;;;;1849997;77;26255;-39
2022/03/18 04:40:11;;;;;;;5.53;3.20;;;;;;;;;;1802733;77;26275;-40
2022/03/18 04:42:39;;;;;;;5.70;3.20;;;;;;;;;;1794624;77;26753;-39
2022/03/18 04:45:07;;;;;;;5.05;3.35;;;;;;;;;;1779330;77;26345;-40
2022/03/18 04:47:35;;;;;;;4.25;3.05;;;;;;;;;;1802250;78;26395;-40
2022/03/18 04:50:03;;;;;;;3.50;3.20;;;;;;;;;;1790694;78;26590;-40
2022/03/18 04:52:30;;;;;;;4.22;3.10;;;;;;;;;;1793469;78;26291;-40
2022/03/18 04:54:58;;;;;;;5.15;3.25;;;;;;;;;;1781740;78;26600;-41
2022/03/18 04:57:25;;;;;;;3.95;3.27;;;;;;;;;;1775522;81;26377;-42
2022/03/18 04:59:54;;;;;;;3.90;3.60;;;;;;;;;;1812340;78;26617;-40
2022/03/18 05:02:21;;;;;;;6.25;3.30;;;;;;;;;;1801038;79;26303;-40
2022/03/18 05:04:49;;;;;;;4.33;3.30;;;;;;;;;;1777418;78;26844;-40
2022/03/18 05:07:16;;;;;;;4.80;3.42;;;;;;;;;;1841454;78;26356;-41
2022/03/18 05:09:45;;;;;;;4.78;3.27;;;;;;;;;;1841296;77;26775;-40
2022/03/18 05:12:14;;;;;;;3.85;3.35;;;;;;;;;;1817241;78;26323;-39
2022/03/18 05:14:41;;;;;;;5.92;3.90;;;;;;;;;;1805023;79;26227;-40
2022/03/18 05:17:10;;;;;;;4.12;3.50;;;;;;;;;;1803646;79;26283;-40
2022/03/18 05:19:38;;;;;;;5.20;3.60;;;;;;;;;;1795516;79;26290;-40
2022/03/18 05:22:08;;;;;;;5.05;3.72;;;;;;;;;;1794166;80;26354;-40
2022/03/18 05:24:36;;;;;;;4.60;3.70;;;;;;;;;;1807417;78;26298;-39
2022/03/18 05:27:04;;;;;;;4.72;3.60;;;;;;;;;;1807059;78;26581;-41
2022/03/18 05:29:32;;;;;;;4.03;3.60;;;;;;;;;;1805192;79;26296;-40
2022/03/18 05:31:59;;;;;;;5.20;3.50;;;;;;;;;;1833279;78;26273;-39
2022/03/18 05:34:27;;;;;;;5.20;3.80;;;;;;;;;;1835362;78;26335;-40
2022/03/18 05:36:54;;;;;;;5.12;4.12;;;;;;;;;;1827858;78;26299;-39
2022/03/18 05:39:22;;;;;;;4.15;3.58;;;;;;;;;;1832500;78;26597;-41
2022/03/18 05:41:49;;;;;;;4.40;4.00;;;;;;;;;;1823837;78;26221;-40
2022/03/18 05:44:16;;;;;;;4.60;3.80;;;;;;;;;;1810065;79;26318;-39
2022/03/18 05:46:44;;;;;;;4.67;3.60;;;;;;;;;;1807248;78;26329;-41
2022/03/18 05:49:11;;;;;;;4.72;3.60;;;;;;;;;;1803466;79;25642;-40
2022/03/18 05:51:38;;;;;;;5.65;3.67;;;;;;;;;;1806475;77;26291;-40
2022/03/18 05:54:06;;;;;;;4.22;3.47;;;;;;;;;;1813447;77;26227;-40
2022/03/18 05:59:19;;;;;;;5.05;3.70;;;;;;;;;;1829643;77;26364;-40
2022/03/18 06:01:47;;;;;;;6.08;3.92;;;;;;;;;;1816608;77;26568;-41
2022/03/18 06:04:14;;;;;;;4.30;3.90;;;;;;;;;;1824761;77;26302;-40
2022/03/18 06:06:44;;;;;;;4.03;3.60;;;;;;;;;;1822937;77;26219;-40
2022/03/18 06:11:57;;;;;;;3.98;3.58;;;;;;;;;;1808625;79;26408;-39
2022/03/18 06:14:26;;;;;;;3.95;3.65;;;;;;;;;;1790184;80;26281;-40
2022/03/18 06:16:54;;;;;;;3.98;3.42;;;;;;;;;;1824148;77;26344;-41
2022/03/18 06:19:23;;;;;;;4.55;3.30;;;;;;;;;;1832706;78;26282;-41
2022/03/18 06:21:51;;;;;;;4.05;3.50;;;;;;;;;;1837652;78;26749;-41
2022/03/18 06:24:20;;;;;;;4.03;3.72;;;;;;;;;;1837515;77;26287;-41
2022/03/18 06:26:48;;;;;;;3.80;3.27;;;;;;;;;;1844044;77;26398;-40
2022/03/18 06:29:16;;;;;;;3.75;3.40;;;;;;;;;;1850814;77;26290;-42
2022/03/18 06:31:44;;;;;;;3.25;3.05;;;;;;;;;;1825829;77;26291;-42
2022/03/18 06:34:11;;;;;;;3.98;3.35;;;;;;;;;;1820316;78;26220;-42
2022/03/18 06:36:39;;;;;;;3.45;3.17;;;;;;;;;;1820092;79;26788;-42
2022/03/18 06:39:07;;;;;;;3.45;3.25;;;;;;;;;;1820529;78;26235;-42
2022/03/18 06:41:35;;;;;;;3.20;3.00;;;;;;;;;;1832901;77;26283;-41
2022/03/18 06:44:03;;;;;;;3.10;2.90;;;;;;;;;;1791008;79;26815;-41
2022/03/18 06:46:30;;;;;;;3.10;2.90;;;;;;;;;;1805728;79;26268;-41
2022/03/18 06:48:58;;;;;;;2.77;2.58;;;;;;;;;;1808213;79;26971;-41
2022/03/18 06:51:25;;;;;;;3.15;2.95;;;;;;;;;;1805496;79;26743;-43
2022/03/18 06:53:52;;;;;;;3.37;3.10;;;;;;;;;;1797838;78;26267;-40
2022/03/18 06:56:20;;;;;;;2.92;2.70;;;;;;;;;;1786528;78;26295;-39
2022/03/18 06:58:47;;;;;;;2.95;2.83;;;;;;;;;;1776280;78;26282;-41
2022/03/18 07:01:15;;;;;;;3.05;2.83;;;;;;;;;;1783867;78;26707;-41
2022/03/18 07:03:42;;;;;;;3.08;2.87;;;;;;;;;;1779905;78;26377;-39
2022/03/18 07:06:09;;;;;;;2.98;2.77;;;;;;;;;;1795710;78;26287;-50
2022/03/18 07:08:37;;;;;;;3.95;2.50;;;;;;;;;;1805007;79;26271;-40
2022/03/18 07:11:04;;;;;;;2.75;2.60;;;;;;;;;;1803975;79;26338;-42
2022/03/18 07:13:31;;;;;;;3.02;2.70;;;;;;;;;;1780947;78;26286;-40
2022/03/18 07:17:54;;;;;;;3.60;2.77;;;;;;;;;;1778550;78;28904;-42
2022/03/18 07:18:28;;;;;;;4.50;2.70;;;;;;;;;;1782380;78;28747;-41
2022/03/18 07:20:55;;;;;;;2.58;2.35;;;;;;;;;;1786910;78;26848;-48
2022/03/18 07:23:22;;;;;;;17.12;3.50;;;;;;;;;;1784331;78;26295;-44
2022/03/18 07:25:51;;;;;;;11.78;3.00;;;;;;;;;;1782901;78;26310;-46
2022/03/18 07:28:18;;;;;;;8.90;3.25;;;;;;;;;;1784383;78;26298;-46
2022/03/18 07:30:45;;;;;;;12.00;2.75;;;;;;;;;;1802627;78;26276;-46
2022/03/18 07:33:13;;;;;;;3.10;2.50;;;;;;;;;;1793965;78;26932;-44
2022/03/18 07:35:42;;;;;;;7.70;2.85;;;;;;;;;;1786370;78;26298;-43
2022/03/18 07:38:10;;;;;;;3.40;2.70;;;;;;;;;;1780110;79;26298;-46
2022/03/18 07:40:38;;;;;;;3.17;2.25;;;;;;;;;;1791946;78;26271;-46
2022/03/18 07:43:09;;;;;;;3.37;2.47;;;;;;;;;;1801253;78;26294;-45
2022/03/18 07:45:38;;;;;;;3.75;2.40;;;;;;;;;;1779734;78;26353;-45
2022/03/18 07:48:07;;;;;;;4.20;2.22;;;;;;;;;;1787767;78;26521;-41
2022/03/18 07:50:35;;;;;;;2.67;2.33;;;;;;;;;;1782530;78;26698;-42
2022/03/18 07:53:04;;;;;;;2.37;2.22;;;;;;;;;;1791489;78;26259;-42
2022/03/18 07:55:32;;;;;;;2.17;2.00;;;;;;;;;;1792850;78;25759;-42
2022/03/18 07:58:00;;;;;;;2.00;1.90;;;;;;;;;;1787407;78;26279;-45
2022/03/18 08:00:27;;;;;;;2.25;2.10;;;;;;;;;;1796820;78;26318;-41
2022/03/18 08:02:55;;;;;;;2.08;1.98;;;;;;;;;;1789800;78;26301;-45
2022/03/18 08:05:22;;;;;;;2.25;2.05;;;;;;;;;;1791584;78;26366;-45
2022/03/18 08:07:50;;;;;;;4.92;1.82;;;;;;;;;;1795333;78;26789;-45
2022/03/18 08:10:17;;;;;;;1.70;1.60;;;;;;;;;;1803664;78;26385;-47
2022/03/18 08:12:46;;;;;;;1.98;1.70;;;;;;;;;;1790465;79;26714;-44
2022/03/18 08:15:14;;;;;;;4.20;1.80;;;;;;;;;;1800725;79;26792;-46
2022/03/18 08:17:43;;;;;;;1.72;1.62;;;;;;;;;;1792256;79;26276;-43
2022/03/18 08:20:12;;;;;;;1.62;1.52;;;;;;;;;;1801609;78;26251;-44
2022/03/18 08:22:40;;;;;;;1.70;1.60;;;;;;;;;;1785076;78;26306;-46
2022/03/18 08:25:08;;;;;;;1.80;1.67;;;;;;;;;;1792084;79;26294;-43
2022/03/18 08:27:36;;;;;;;3.00;1.40;;;;;;;;;;1800945;78;26310;-43
2022/03/18 08:30:04;;;;;;;1.45;1.45;;;;;;;;;;1802326;78;26343;-45
2022/03/18 08:32:32;;;;;;;1.32;1.32;;;;;;;;;;1805231;78;26353;-45
2022/03/18 08:34:59;;;;;;;1.20;1.20;;;;;;;;;;1794272;79;26762;-43
2022/03/18 08:40:13;;;;;;;1.20;1.20;;;;;;;;;;1795950;78;26349;-42
2022/03/18 08:42:40;;;;;;;1.25;1.25;;;;;;;;;;1802233;78;26801;-43
2022/03/18 08:45:09;;;;;;;1.17;1.17;;;;;;;;;;1809576;79;26381;-45
2022/03/18 08:47:36;;;;;;;1.10;1.10;;;;;;;;;;1780384;78;26290;-44
2022/03/18 08:50:04;;;;;;;1.10;1.10;;;;;;;;;;1777272;79;26298;-44
2022/03/18 08:52:32;;;;;;;1.02;1.02;;;;;;;;;;1784030;78;26302;-44
2022/03/18 08:55:00;;;;;;;1.15;1.15;;;;;;;;;;1800929;79;26270;-45
2022/03/18 08:57:33;;;;;;;1.10;1.10;;;;;;;;;;1793425;79;26392;-44
2022/03/18 08:59:56;;;;;;;0.90;0.90;;;;;;;;;;1802749;78;26409;-43
2022/03/18 09:02:24;;;;;;;2.85;0.93;;;;;;;;;;1802945;78;26306;-46
2022/03/18 09:04:52;;;;;;;1.05;1.05;;;;;;;;;;1804061;78;26325;-45
2022/03/18 09:07:19;;;;;;;1.95;1.00;;;;;;;;;;1820990;78;26291;-44
2022/03/18 09:09:47;;;;;;;1.02;1.02;;;;;;;;;;1776362;79;26340;-44
2022/03/18 09:12:16;;;;;;;0.82;0.82;;;;;;;;;;1800129;78;26334;-47
2022/03/18 09:14:43;;;;;;;0.90;0.90;;;;;;;;;;1785095;78;26326;-47
2022/03/18 09:17:10;;;;;;;0.80;0.80;;;;;;;;;;1799714;78;26235;-43
2022/03/18 09:19:38;;;;;;;0.80;0.80;;;;;;;;;;1794270;78;26330;-42
2022/03/18 09:22:06;;;;;;;0.68;0.68;;;;;;;;;;1796101;79;26274;-45
2022/03/18 09:24:34;;;;;;;0.78;0.78;;;;;;;;;;1793615;78;26331;-43
2022/03/18 09:27:01;;;;;;;0.70;0.70;;;;;;;;;;1793745;78;27329;-43
2022/03/18 09:29:29;;;;;;;5.47;0.75;;;;;;;;;;1775157;79;26293;-43
2022/03/18 09:31:56;;;;;;;2.47;0.90;;;;;;;;;;1802409;78;26870;-45
2022/03/18 09:34:27;;;;;;;1.15;0.57;;;;;;;;;;1795214;78;26286;-44
2022/03/18 09:36:55;;;;;;;0.65;0.65;;;;;;;;;;1797090;78;26380;-53
2022/03/18 09:39:24;;;;;;;1.52;0.70;;;;;;;;;;1802063;78;26684;-50
2022/03/18 09:41:52;;;;;;;0.68;0.68;;;;;;;;;;1785531;79;26568;-47
2022/03/18 09:44:21;;;;;;;0.78;0.78;;;;;;;;;;1784337;78;26739;-40
2022/03/18 09:46:49;;;;;;;4.37;0.90;;;;;;;;;;1799352;77;26379;-42
2022/03/18 09:49:18;;;;;;;1.98;0.60;;;;;;;;;;1817041;77;26272;-45
2022/03/18 09:51:48;;;;;;;1.90;0.70;;;;;;;;;;1814961;77;26369;-45
2022/03/18 09:54:17;;;;;;;1.02;0.60;;;;;;;;;;1810467;78;26319;-43
2022/03/18 09:56:46;;;;;;;0.60;0.60;;;;;;;;;;1802424;79;26335;-48
2022/03/18 09:59:13;;;;;;;1.62;0.60;;;;;;;;;;1808170;77;26322;-49
2022/03/18 10:01:41;;;;;;;1.00;0.60;;;;;;;;;;1821177;77;26788;-48
2022/03/18 10:04:14;;;;;;;2.98;0.68;;;;;;;;;;1805723;78;26438;-47
2022/03/18 10:06:39;;;;;;;1.67;0.70;;;;;;;;;;1821538;77;26341;-48
2022/03/18 10:09:06;;;;;;;1.50;0.57;;;;;;;;;;1818195;77;26420;-44
2022/03/18 10:11:37;;;;;;;0.55;0.55;;;;;;;;;;1810686;77;26307;-48
2022/03/18 10:14:05;;;;;;;0.50;0.50;;;;;;;;;;1818872;77;26329;-47
2022/03/18 10:16:34;;;;;;;1.27;0.50;;;;;;;;;;1807972;77;26765;-42
2022/03/18 10:19:02;;;;;;;0.50;0.50;;;;;;;;;;1815299;77;26337;-42
2022/03/18 10:21:30;;;;;;;0.50;0.50;;;;;;;;;;1807840;78;26811;-42
2022/03/18 10:24:04;;;;;;;0.40;0.40;;;;;;;;;;1808278;78;26251;-42
2022/03/18 10:26:34;;;;;;;0.45;0.45;;;;;;;;;;1809998;77;26302;-42
2022/03/18 10:29:01;;;;;;;0.33;0.33;;;;;;;;;;1803095;77;26414;-43
2022/03/18 10:31:28;;;;;;;0.40;0.40;;;;;;;;;;1815188;77;26714;-41
2022/03/18 10:39:30;;;;;;;0.50;0.50;;;;;;;;;;1811650;77;26335;-43
2022/03/18 10:42:03;;;;;;;0.57;0.57;;;;;;;;;;1796393;77;26595;-42
2022/03/18 10:44:28;;;;;;;0.78;0.60;;;;;;;;;;1824528;77;26313;-43
2022/03/18 10:46:56;;;;;;;0.50;0.50;;;;;;;;;;1802699;77;26396;-43
2022/03/18 10:49:24;;;;;;;0.50;0.50;;;;;;;;;;1806660;77;26770;-43
2022/03/18 10:51:51;;;;;;;0.50;0.50;;;;;;;;;;1790470;78;26305;-42
2022/03/18 10:54:25;;;;;;;0.50;0.50;;;;;;;;;;1793205;78;26364;-42
2022/03/18 10:56:53;;;;;;;0.40;0.40;;;;;;;;;;1793593;77;26301;-43
2022/03/18 10:59:22;;;;;;;0.45;0.45;;;;;;;;;;1794022;79;26361;-42
2022/03/18 11:01:51;;;;;;;0.60;0.50;;;;;;;;;;1804964;79;26313;-42
2022/03/18 11:04:18;;;;;;;0.40;0.33;;;;;;;;;;1812163;77;26314;-43
2022/03/18 11:11:06;;;;;;;1.25;0.50;;;;;;;;;;1809112;77;26379;-43
2022/03/18 11:12:02;;;;;;;0.42;0.42;;;;;;;;;;1810461;77;26792;-43
2022/03/18 11:14:29;;;;;;;0.40;0.40;;;;;;;;;;1812487;77;26281;-42
2022/03/18 11:16:56;;;;;;;0.40;0.40;;;;;;;;;;1811419;77;26664;-43
2022/03/18 11:19:24;;;;;;;0.42;0.42;;;;;;;;;;1813365;77;26691;-43
2022/03/18 11:21:52;;;;;;;0.35;0.33;;;;;;;;;;1812752;77;26269;-43
2022/03/18 11:24:23;;;;;;;0.35;0.35;;;;;;;;;;1817126;79;26258;-43
2022/03/18 11:26:53;;;;;;;0.40;0.40;;;;;;;;;;1819076;78;26361;-43
2022/03/18 11:29:27;;;;;;;0.23;0.23;;;;;;;;;;1822215;77;26748;-43
2022/03/18 11:31:52;;;;;;;0.45;0.45;;;;;;;;;;1820044;77;26722;-44
2022/03/18 11:34:21;;;;;;;0.40;0.40;;;;;;;;;;1765982;78;26897;-45
2022/03/18 11:36:50;;;;;;;0.30;0.30;;;;;;;;;;1808693;79;26811;-44
2022/03/18 11:39:21;;;;;;;0.40;0.40;;;;;;;;;;1807983;77;26746;-43
2022/03/18 11:41:56;;;;;;;0.40;0.40;;;;;;;;;;1820030;77;26362;-43
2022/03/18 11:44:40;;;;;;;0.40;0.40;;;;;;;;;;1791185;78;26277;-43
2022/03/18 11:47:30;;;;;;;0.50;0.50;;;;;;;;;;1791208;77;27290;-42
2022/03/18 11:49:58;;;;;;;0.57;0.57;;;;;;;;;;1790398;79;26422;-42
2022/03/18 11:52:26;;;;;;;0.37;0.28;;;;;;;;;;1796286;78;27337;-43
2022/03/18 11:54:54;;;;;;;0.40;0.40;;;;;;;;;;1827016;77;26631;-44
2022/03/18 11:57:29;;;;;;;0.50;0.50;;;;;;;;;;1807821;77;26301;-43
2022/03/18 12:00:00;;;;;;;0.30;0.30;;;;;;;;;;1802549;77;26294;-43
2022/03/18 12:02:35;;;;;;;0.23;0.23;;;;;;;;;;1799958;78;26868;-43
2022/03/18 12:05:05;;;;;;;0.50;0.50;;;;;;;;;;1809235;77;26362;-42
2022/03/18 12:07:48;;;;;;;0.40;0.40;;;;;;;;;;1819419;77;26266;-44
2022/03/18 12:10:18;;;;;;;0.30;0.30;;;;;;;;;;1807080;78;26290;-44
2022/03/18 12:12:46;;;;;;;0.40;0.40;;;;;;;;;;1793669;77;26289;-43
2022/03/18 12:15:18;;;;;;;0.40;0.40;;;;;;;;;;1813167;77;26521;-43
2022/03/18 12:17:46;;;;;;;0.40;0.40;;;;;;;;;;1802271;78;26298;-42
2022/03/18 12:20:18;;;;;;;0.23;0.23;;;;;;;;;;1814531;77;26239;-43
2022/03/18 12:22:46;;;;;;;0.55;0.55;;;;;;;;;;1818366;77;26259;-43
2022/03/18 12:25:14;;;;;;;0.40;0.40;;;;;;;;;;1812365;77;26298;-43
2022/03/18 12:27:43;;;;;;;0.35;0.35;;;;;;;;;;1824187;77;26675;-42
2022/03/18 12:30:11;;;;;;;0.40;0.40;;;;;;;;;;1803240;77;26319;-46
2022/03/18 12:32:40;;;;;;;0.40;0.40;;;;;;;;;;1822834;77;26306;-43
2022/03/18 12:35:08;;;;;;;0.53;0.40;;;;;;;;;;1806272;77;26924;-44
2022/03/18 12:37:36;;;;;;;0.37;0.37;;;;;;;;;;1790229;79;26367;-43
2022/03/18 12:40:04;;;;;;;0.50;0.50;;;;;;;;;;1810430;77;26290;-43
2022/03/18 12:42:32;;;;;;;0.50;0.50;;;;;;;;;;1822684;77;26757;-42
2022/03/18 12:45:00;;;;;;;2.83;0.42;;;;;;;;;;1832048;77;26274;-47
2022/03/18 12:47:30;;;;;;;0.68;0.55;;;;;;;;;;1787868;77;26397;-48
2022/03/18 12:49:58;;;;;;;0.50;0.50;;;;;;;;;;1781463;78;26583;-47
2022/03/18 12:52:25;;;;;;;0.40;0.40;;;;;;;;;;1790445;78;26377;-48
2022/03/18 12:55:06;;;;;;;0.40;0.40;;;;;;;;;;1779720;78;26797;-46
2022/03/18 12:57:34;;;;;;;0.40;0.40;;;;;;;;;;1790320;78;26278;-48
2022/03/18 13:00:01;;;;;;;0.40;0.40;;;;;;;;;;1782467;78;26682;-48
2022/03/18 13:02:29;;;;;;;0.30;0.30;;;;;;;;;;1788544;78;26338;-44
2022/03/18 13:04:59;;;;;;;2.75;0.40;;;;;;;;;;1791907;78;26378;-46
2022/03/18 13:07:28;;;;;;;0.37;0.37;;;;;;;;;;1793708;78;27303;-41
2022/03/18 13:09:55;;;;;;;4.08;0.50;;;;;;;;;;1789486;78;26352;-46
2022/03/18 13:12:31;;;;;;;0.80;0.45;;;;;;;;;;1781988;78;26359;-46
2022/03/18 13:14:59;;;;;;;1.35;0.40;;;;;;;;;;1781124;78;26282;-43
2022/03/18 13:17:34;;;;;;;1.42;0.45;;;;;;;;;;1786591;78;26286;-48
2022/03/18 13:20:02;;;;;;;0.40;0.40;;;;;;;;;;1795638;78;27376;-46
2022/03/18 13:22:29;;;;;;;1.50;0.45;;;;;;;;;;1790255;78;26309;-45
2022/03/18 13:24:58;;;;;;;0.37;0.37;;;;;;;;;;1791241;78;26266;-45
2022/03/18 13:27:25;;;;;;;0.40;0.40;;;;;;;;;;1792437;78;26307;-45
2022/03/18 13:32:53;;;;;;;1.40;0.40;;;;;;;;;;1790995;78;26821;-46
2022/03/18 13:35:22;;;;;;;0.40;0.40;;;;;;;;;;1790510;78;26326;-48
2022/03/18 13:38:09;;;;;;;0.62;0.47;;;;;;;;;;1798785;78;26337;-46
2022/03/18 13:40:38;;;;;;;2.05;0.50;;;;;;;;;;1778801;79;26343;-46
2022/03/18 13:43:07;;;;;;;0.85;0.40;;;;;;;;;;1788432;78;26318;-46
2022/03/18 13:45:36;;;;;;;1.17;0.50;;;;;;;;;;1774602;78;26302;-45
2022/03/18 13:48:04;;;;;;;1.17;0.50;;;;;;;;;;1790141;78;26988;-44
2022/03/18 13:50:45;;;;;;;7.28;0.50;;;;;;;;;;1799349;78;26283;-45
2022/03/18 13:53:23;;;;;;;0.85;0.47;;;;;;;;;;1800687;78;26383;-46
2022/03/18 13:55:51;;;;;;;0.42;0.42;;;;;;;;;;1802839;78;26383;-44
2022/03/18 13:58:29;;;;;;;0.68;0.68;;;;;;;;;;1804463;78;26308;-44
2022/03/18 14:01:10;;;;;;;0.50;0.50;;;;;;;;;;1809894;78;26635;-43
2022/03/18 14:03:38;;;;;;;0.40;0.40;;;;;;;;;;1795198;78;26392;-46
2022/03/18 14:06:06;;;;;;;0.50;0.50;;;;;;;;;;1798406;78;26298;-42
2022/03/18 14:08:42;;;;;;;0.40;0.40;;;;;;;;;;1802218;78;26569;-46
2022/03/18 14:14:25;;;;;;;0.37;0.37;;;;;;;;;;1795041;78;26690;-47
2022/03/18 14:17:08;;;;;;;2.17;0.35;;;;;;;;;;1792466;78;26302;-47
2022/03/18 14:19:42;;;;;;;0.65;0.60;;;;;;;;;;1798115;78;26543;-48
2022/03/18 14:22:09;;;;;;;1.17;0.35;;;;;;;;;;1799702;79;26271;-45
2022/03/18 14:24:37;;;;;;;1.12;0.30;;;;;;;;;;1797009;78;26305;-44
2022/03/18 14:27:05;;;;;;;0.50;0.50;;;;;;;;;;1783753;79;27416;-44
2022/03/18 14:29:35;;;;;;;0.28;0.28;;;;;;;;;;1804113;78;26266;-46
2022/03/18 14:32:01;;;;;;;0.40;0.40;;;;;;;;;;1792116;78;26431;-44
2022/03/18 14:34:31;;;;;;;0.40;0.40;;;;;;;;;;1802020;78;26274;-45
2022/03/18 14:36:58;;;;;;;1.30;0.57;;;;;;;;;;1796065;78;26281;-47
2022/03/18 14:39:25;;;;;;;0.35;0.35;;;;;;;;;;1804511;78;26340;-45
2022/03/18 14:41:53;;;;;;;0.55;0.55;;;;;;;;;;1796922;78;26761;-46
2022/03/18 14:44:20;;;;;;;0.30;0.30;;;;;;;;;;1786405;79;26278;-46
2022/03/18 14:46:47;;;;;;;1.75;0.50;;;;;;;;;;1797647;78;26286;-46
2022/03/18 14:49:15;;;;;;;0.70;0.60;;;;;;;;;;1781402;78;29443;-44
2022/03/18 14:51:42;;;;;;;0.40;0.40;;;;;;;;;;1800994;78;26287;-44
2022/03/18 14:54:10;;;;;;;0.33;0.33;;;;;;;;;;1785307;79;26697;-49
2022/03/18 14:56:37;;;;;;;2.37;0.70;;;;;;;;;;1784722;79;26321;-44
2022/03/18 14:59:04;;;;;;;0.40;0.40;;;;;;;;;;1786239;79;26267;-43
2022/03/18 15:01:31;;;;;;;0.42;0.42;;;;;;;;;;1793049;78;26308;-45
2022/03/18 15:04:05;;;;;;;1.75;0.50;;;;;;;;;;1796628;78;26295;-44
2022/03/18 15:06:28;;;;;;;1.57;0.50;;;;;;;;;;1792359;78;26298;-45
2022/03/18 15:08:55;;;;;;;0.35;0.35;;;;;;;;;;1790693;79;26336;-47
2022/03/18 15:11:22;;;;;;;0.40;0.40;;;;;;;;;;1788273;78;26275;-44
2022/03/18 15:13:49;;;;;;;1.55;0.53;;;;;;;;;;1788084;79;26329;-46
2022/03/18 15:16:17;;;;;;;0.72;0.20;;;;;;;;;;1797127;78;26227;-44
2022/03/18 15:18:44;;;;;;;0.40;0.40;;;;;;;;;;1790914;78;26291;-46
2022/03/18 15:21:11;;;;;;;0.37;0.37;;;;;;;;;;1793397;78;26294;-45